Latest Weather Observations for Yunta

IDS60801

Issued at 10:21 am CDT Sunday 17 February 2019 (issued every 10 minutes, with the page automatically refreshed every 10 minutes)

About weather observations | Map of weather stations | Latest weather observations for SA | Other Formats
Station Details ID: 020062 Name: YUNTA AIRSTRIP Lat: -32.57 Lon: 139.56 Height: 300.0 m
Data from the previous 72 hours. | See also: Recent months at Yunta
Date/Time
CDT
Temp
°C
App
Temp
°C
Dew
Point
°C
Rel
Hum
%
Delta-T
°C
Wind Press
QNH
hPa
Press
MSL
hPa
Rain since
9am
mm
Dir  Spd
km/h
Gust
km/h
Spd
kts
Gust
kts
17/10:00am 26.1 23.3 2.1 21 11.7 ESE 6 9 3 5 1013.4 1011.9 0.0
17/09:30am 24.6 21.9 2.7 24 10.7 SSE 6 9 3 5 1013.5 1012.0 0.0
17/09:00am 22.8 19.8 2.3 26 9.8 S 7 11 4 6 1013.5 1012.0 0.0
17/08:30am 21.2 18.5 2.5 29 8.9 SSW 6 7 3 4 1013.4 1011.9 0.0
17/08:00am 18.7 16.9 1.2 31 8.0 CALM 0 0 0 0 1013.1 1011.5 0.0
17/07:30am 15.4 13.1 0.4 36 6.5 WSW 2 2 1 1 1013.3 1011.8 0.0
17/07:00am 14.4 11.4 0.6 39 6.0 SW 6 6 3 3 1013.4 1011.9 0.0
17/06:30am 14.4 12.2 1.3 41 5.8 WSW 2 4 1 2 1013.4 1011.9 0.0
17/06:00am 15.0 12.1 1.2 39 6.1 SSW 6 7 3 4 1013.3 1011.8 0.0
17/05:30am 15.7 12.7 1.8 39 6.2 SW 7 11 4 6 1013.1 1011.5 0.0
17/05:00am 15.7 12.9 1.8 39 6.2 SW 6 7 3 4 1012.9 1011.3 0.0
17/04:30am 16.8 14.1 2.4 38 6.6 SW 6 7 3 4 1012.9 1011.3 0.0
17/04:00am 17.1 14.3 1.9 36 6.9 SW 6 6 3 3 1013.1 1011.5 0.0
17/03:30am 18.3 15.6 3.8 38 6.9 SW 7 7 4 4 1013.4 1011.9 0.0
17/03:00am 19.1 16.8 2.9 34 7.6 SW 4 6 2 3 1013.5 1012.0 0.0
17/02:30am 17.9 14.9 1.0 32 7.6 W 6 9 3 5 1013.8 1012.3 0.0
17/02:00am 20.6 17.5 1.5 28 8.9 SW 7 9 4 5 1013.9 1012.4 0.0
17/01:30am 21.1 17.5 0.3 25 9.5 SW 9 9 5 5 1014.0 1012.5 0.0
17/01:00am 21.1 17.3 -0.8 23 9.8 WSW 9 13 5 7 1014.2 1012.7 0.0
17/12:30am 19.9 17.1 -0.7 25 9.1 SSW 4 9 2 5 1014.2 1012.7 0.0
17/12:00am 19.8 17.5 -2.5 22 9.5 CALM 0 0 0 0 1014.1 1012.6 0.0
 
Date/Time
CDT
Temp
°C
App
Temp
°C
Dew
Point
°C
Rel
Hum
%
Delta-T
°C
Wind Press
QNH
hPa
Press
MSL
hPa
Rain since
9am
mm
Dir  Spd
km/h
Gust
km/h
Spd
kts
Gust
kts
16/11:30pm 20.8 18.4 -3.0 20 10.1 CALM 0 0 0 0 1014.2 1012.7 0.0
16/11:00pm 22.3 20.1 -1.7 20 10.6 CALM 0 0 0 0 1014.4 1012.9 0.0
16/10:30pm 22.2 20.0 -1.8 20 10.6 CALM 0 0 0 0 1014.5 1013.0 0.0
16/10:00pm 25.1 22.2 -0.9 18 12.0 SE 4 6 2 3 1014.3 1012.8 0.0
16/09:30pm 26.9 23.4 -1.0 16 13.0 SE 7 9 4 5 1014.1 1012.6 0.0
16/09:00pm 27.8 24.1 -0.3 16 13.3 SE 9 9 5 5 1013.9 1012.4 0.0
16/08:30pm 29.3 25.1 -0.9 14 14.3 SE 11 15 6 8 1013.7 1012.2 0.0
16/08:00pm 30.6 25.6 -0.9 13 15.1 ESE 15 20 8 11 1013.5 1012.0 0.0
16/07:30pm 31.7 27.2 -0.1 13 15.6 ESE 13 20 7 11 1013.2 1011.7 0.0
16/07:00pm 32.6 28.5 -0.5 12 16.2 SSE 11 24 6 13 1013.0 1011.4 0.0
16/06:30pm 32.9 28.6 0.9 13 16.0 SSE 13 20 7 11 1013.0 1011.4 0.0
16/06:00pm 32.9 29.0 0.9 13 16.0 ESE 11 28 6 15 1013.2 1011.7 0.0
16/05:30pm 33.7 30.4 0.4 12 16.6 SE 7 15 4 8 1013.3 1011.8 0.0
16/05:00pm 33.3 30.2 0.1 12 16.5 SSE 6 13 3 7 1013.4 1011.9 0.0
16/04:30pm 33.4 29.7 0.1 12 16.5 SE 9 20 5 11 1013.6 1012.1 0.0
16/04:00pm 33.0 29.7 -0.2 12 16.3 WSW 7 20 4 11 1013.9 1012.4 0.0
16/03:30pm 32.7 29.9 -0.4 12 16.2 NW 4 11 2 6 1014.3 1012.8 0.0
16/03:00pm 32.8 28.3 -0.3 12 16.2 SE 13 24 7 13 1014.9 1013.4 0.0
16/02:30pm 32.3 29.0 0.4 13 15.8 S 7 15 4 8 1015.3 1013.8 0.0
16/02:00pm 31.4 28.0 -0.3 13 15.4 E 7 15 4 8 1015.9 1014.3 0.0
16/01:30pm 31.1 26.6 -0.5 13 15.3 S 13 20 7 11 1016.4 1014.9 0.0
16/01:00pm 30.3 27.0 -0.1 14 14.7 SSE 7 17 4 9 1016.6 1015.1 0.0
16/12:30pm 30.3 27.0 2.5 17 14.1 ESE 9 15 5 8 1017.2 1015.7 0.0
16/12:00pm 29.1 26.3 3.1 19 13.2 SE 7 13 4 7 1017.8 1016.3 0.0
16/11:30am 27.9 25.3 4.2 22 12.2 SE 7 15 4 8 1018.3 1016.8 0.0
16/11:00am 25.7 23.3 5.3 27 10.5 SSE 7 13 4 7 1018.6 1017.1 0.0
16/10:30am 24.0 21.7 5.8 31 9.4 SE 7 15 4 8 1018.7 1017.2 0.0
16/10:00am 22.2 20.0 6.4 36 8.2 S 7 15 4 8 1019.0 1017.4 0.0
16/09:30am 20.4 18.3 6.7 41 7.0 S 7 13 4 7 1019.0 1017.4 0.0
16/09:00am 18.2 15.7 6.7 47 5.8 SSW 9 11 5 6 1019.0 1017.4 0.0
16/08:30am 15.5 14.3 6.5 55 4.4 SW 2 6 1 3 1019.0 1017.4 0.0
16/08:00am 15.0 13.6 7.1 59 3.9 SW 4 6 2 3 1018.8 1017.3 0.0
16/07:30am 14.0 12.1 6.8 62 3.5 WSW 6 7 3 4 1018.8 1017.3 0.0
16/07:00am 13.2 11.2 6.3 63 3.3 SW 6 7 3 4 1018.6 1017.1 0.0
16/06:30am 14.0 12.6 7.1 63 3.4 SW 4 6 2 3 1018.3 1016.8 0.0
16/06:00am 14.3 12.3 6.9 61 3.7 SW 7 9 4 5 1018.3 1016.8 0.0
16/05:30am 14.7 12.9 7.0 60 3.8 WSW 6 6 3 3 1018.3 1016.8 0.0
16/05:00am 14.7 13.1 6.5 58 4.0 WSW 4 6 2 3 1018.5 1017.0 0.0
16/04:30am 16.2 13.9 7.4 56 4.4 SSW 9 11 5 6 1018.6 1017.1 0.0
16/04:00am 17.0 14.4 7.6 54 4.8 WSW 11 13 6 7 1018.6 1017.1 0.0
16/03:30am 18.4 15.4 7.8 50 5.5 SSW 13 17 7 9 1018.6 1017.1 0.0
16/03:00am 19.1 16.4 7.2 46 6.1 SSW 11 15 6 8 1018.7 1017.2 0.0
16/02:30am 17.6 14.5 0.3 31 7.6 SSW 6 6 3 3 1018.6 1017.1 0.0
16/02:00am 19.3 16.4 1.3 30 8.2 SSW 6 9 3 5 1019.0 1017.4 0.0
16/01:30am 19.9 15.9 -2.4 22 9.5 WSW 9 11 5 6 1019.0 1017.4 0.0
16/01:00am 21.5 18.0 -1.7 21 10.2 SW 7 9 4 5 1018.8 1017.3 0.0
16/12:30am 19.9 16.5 -2.4 22 9.5 SW 6 9 3 5 1019.1 1017.6 0.0
16/12:00am 18.9 16.5 -3.3 22 9.2 CALM 0 0 0 0 1019.3 1017.8 0.0
 
Date/Time
CDT
Temp
°C
App
Temp
°C
Dew
Point
°C
Rel
Hum
%
Delta-T
°C
Wind Press
QNH
hPa
Press
MSL
hPa
Rain since
9am
mm
Dir  Spd
km/h
Gust
km/h
Spd
kts
Gust
kts
15/11:30pm 19.6 17.2 -3.3 21 9.6 CALM 0 0 0 0 1019.2 1017.7 0.0
15/11:00pm 20.0 17.2 -3.6 20 9.9 W 2 2 1 1 1019.2 1017.7 0.0
15/10:30pm 20.9 18.4 -3.6 19 10.3 CALM 0 0 0 0 1019.2 1017.7 0.0
15/10:00pm 21.6 18.8 -3.7 18 10.7 ESE 2 4 1 2 1019.2 1017.7 0.0
15/09:30pm 24.0 20.3 -2.5 17 11.7 SE 7 9 4 5 1019.0 1017.4 0.0
15/09:00pm 25.2 21.6 -2.4 16 12.3 SE 7 9 4 5 1018.6 1017.1 0.0
15/08:30pm 26.3 22.3 -2.4 15 12.9 SE 9 11 5 6 1018.4 1016.9 0.0
15/08:00pm 27.6 23.2 -2.3 14 13.7 SE 11 19 6 10 1018.1 1016.6 0.0
15/07:30pm 28.7 24.1 -1.4 14 14.1 SE 13 20 7 11 1017.7 1016.2 0.0
15/07:00pm 29.3 24.2 -1.9 13 14.5 SE 15 24 8 13 1017.5 1016.0 0.0
15/06:30pm 29.5 24.8 -1.8 13 14.6 SE 13 20 7 11 1017.4 1015.9 0.0
15/06:00pm 30.0 26.1 -1.4 13 14.8 S 9 19 5 10 1017.6 1016.1 0.0
15/05:30pm 29.9 26.0 -1.5 13 14.8 ESE 9 22 5 12 1017.7 1016.2 0.0
15/05:00pm 30.2 24.4 -1.2 13 14.9 S 19 24 10 13 1017.7 1016.2 0.0
15/04:30pm 29.9 26.0 -1.5 13 14.8 SSW 9 17 5 9 1017.9 1016.4 0.0
15/04:00pm 30.1 25.5 -1.3 13 14.9 SSE 13 24 7 13 1018.1 1016.6 0.0
15/03:30pm 29.2 25.4 -1.0 14 14.3 ESE 9 17 5 9 1018.7 1017.2 0.0
15/03:00pm 28.9 26.0 -1.2 14 14.1 SSW 4 13 2 7 1019.4 1017.9 0.0
15/02:30pm 28.6 25.4 -0.5 15 13.8 SSE 6 19 3 10 1019.9 1018.4 0.0
15/02:00pm 27.7 23.6 -0.4 16 13.3 SW 11 19 6 10 1020.3 1018.8 0.0
15/01:30pm 26.9 23.0 1.3 19 12.4 SW 11 19 6 10 1020.8 1019.3 0.0
15/01:00pm 26.4 23.5 1.7 20 12.0 SSW 6 15 3 8 1021.2 1019.7 0.0
15/12:30pm 25.6 22.9 2.9 23 11.2 E 6 13 3 7 1021.8 1020.3 0.0
15/12:00pm 25.7 22.8 4.8 26 10.7 SE 9 20 5 11 1022.2 1020.8 0.0
15/11:30am 23.8 21.0 5.2 30 9.4 SE 9 17 5 9 1022.7 1021.2 0.0
15/11:00am 22.1 19.1 5.9 35 8.3 SSE 11 15 6 8 1023.0 1021.5 0.0
15/10:30am 21.2 18.3 6.7 39 7.4 SSE 11 17 6 9 1023.2 1021.7 0.0
15/10:00am 19.0 16.3 7.4 47 6.0 S 11 19 6 10 1023.2 1021.7 0.0
15/09:30am 17.9 15.3 7.6 51 5.3 S 11 17 6 9 1023.2 1021.7 0.0
15/09:00am 16.6 13.6 7.8 56 4.5 S 13 19 7 10 1023.0 1021.5 0.0
15/08:30am 15.6 13.3 7.6 59 4.0 S 9 13 5 7 1022.8 1021.3 0.0
15/08:00am 14.3 12.0 7.4 63 3.4 SSW 9 11 5 6 1022.5 1021.0 0.0
15/07:30am 12.9 11.3 6.5 65 3.1 SW 4 6 2 3 1022.3 1020.9 0.0
15/07:00am 10.8 8.8 4.3 64 3.0 SSW 4 6 2 3 1022.1 1020.7 0.0
15/06:30am 11.9 9.5 5.1 63 3.2 SSW 7 9 4 5 1021.8 1020.3 0.0
15/06:00am 13.0 10.8 5.2 59 3.7 SW 6 9 3 5 1021.6 1020.1 0.0
15/05:30am 12.6 9.6 2.2 49 4.6 SSW 7 9 4 5 1021.3 1019.8 0.0
15/05:00am 14.9 11.8 5.7 54 4.5 SSE 11 17 6 9 1021.2 1019.7 0.0
15/04:30am 14.9 13.4 5.1 52 4.7 SW 2 6 1 3 1021.3 1019.8 0.0
15/04:00am 14.5 12.4 3.9 49 4.9 S 4 9 2 5 1021.1 1019.6 0.0
15/03:30am 13.7 10.5 -0.3 38 5.9 SSW 6 9 3 5 1021.0 1019.5 0.0
15/03:00am 13.8 10.6 -0.3 38 5.9 SW 6 7 3 4 1020.6 1019.1 0.0
15/02:30am 14.8 11.7 -0.1 36 6.4 SW 6 6 3 3 1020.6 1019.1 0.0
15/02:00am 14.9 11.6 0.0 36 6.4 SW 7 9 4 5 1020.7 1019.2 0.0
15/01:30am 16.3 13.0 0.0 33 7.1 SW 7 9 4 5 1020.7 1019.2 0.0
15/01:00am 16.5 13.2 0.2 33 7.1 WSW 7 9 4 5 1020.6 1019.1 0.0
15/12:30am 18.4 15.8 1.0 31 7.8 ESE 4 6 2 3 1020.3 1018.8 0.0
15/12:00am 20.0 16.5 1.0 28 8.7 SE 9 15 5 8 1020.3 1018.8 0.0
 
Date/Time
CDT
Temp
°C
App
Temp
°C
Dew
Point
°C
Rel
Hum
%
Delta-T
°C
Wind Press
QNH
hPa
Press
MSL
hPa
Rain since
9am
mm
Dir  Spd
km/h
Gust
km/h
Spd
kts
Gust
kts
14/11:30pm 21.0 16.7 0.8 26 9.3 SE 13 17 7 9 1020.2 1018.7 0.0
14/11:00pm 21.2 17.7 1.0 26 9.3 SE 9 13 5 7 1020.3 1018.8 0.0
14/10:30pm 20.9 17.7 0.7 26 9.2 SSE 7 9 4 5 1020.4 1018.9 0.0
14/10:00pm 21.6 18.0 0.8 25 9.6 SSE 9 15 5 8 1020.2 1018.7 0.0
14/09:30pm 22.1 18.6 1.2 25 9.7 SSE 9 11 5 6 1020.1 1018.6 0.0
14/09:00pm 23.1 19.6 1.5 24 10.2 SE 9 11 5 6 1019.8 1018.3 0.0
14/08:30pm 24.0 19.8 1.6 23 10.7 SE 13 19 7 10 1019.4 1017.9 0.0
14/08:00pm 24.5 19.4 0.8 21 11.2 SE 17 22 9 12 1019.2 1017.7 0.0
14/07:30pm 25.6 20.8 0.3 19 11.9 ESE 15 24 8 13 1018.7 1017.2 0.0
14/07:00pm 25.9 20.4 0.5 19 12.1 ESE 19 26 10 14 1018.3 1016.8 0.0
14/06:30pm 26.8 23.2 0.5 18 12.5 S 9 22 5 12 1018.2 1016.7 0.0
14/06:00pm 26.4 22.5 0.9 19 12.2 SE 11 19 6 10 1018.3 1016.8 0.0
14/05:30pm 26.4 22.7 0.2 18 12.4 SSW 9 22 5 12 1018.3 1016.8 0.0
14/05:00pm 27.1 23.4 0.0 17 12.9 SE 9 19 5 10 1018.4 1016.9 0.0
14/04:30pm 26.1 22.3 -0.8 17 12.5 SSW 9 17 5 9 1018.5 1017.0 0.0
14/04:00pm 26.0 22.4 0.6 19 12.1 SE 9 19 5 10 1018.5 1017.0 0.0
14/03:30pm 25.6 22.6 1.0 20 11.7 SW 6 17 3 9 1019.0 1017.4 0.0
14/03:00pm 24.6 21.0 0.8 21 11.2 SSE 9 17 5 9 1019.6 1018.1 0.0
14/02:30pm 24.0 21.2 2.2 24 10.5 ENE 6 9 3 5 1019.9 1018.4 0.0
14/02:00pm 23.9 20.2 2.1 24 10.5 SSW 11 19 6 10 1020.1 1018.6 0.0
14/01:30pm 22.5 19.5 2.1 26 9.7 S 7 15 4 8 1020.2 1018.7 0.0
14/01:00pm 21.9 19.2 2.6 28 9.3 E 6 15 3 8 1020.4 1018.9 0.0
14/12:30pm 21.2 18.5 2.5 29 8.9 ESE 6 13 3 7 1020.7 1019.2 0.0
14/12:00pm 20.4 17.2 3.2 32 8.2 ESE 9 19 5 10 1021.0 1019.5 0.0
14/11:30am 19.5 15.6 3.2 34 7.7 SE 13 20 7 11 1021.3 1019.8 0.0
14/11:00am 18.6 14.4 4.0 38 7.0 SE 15 20 8 11 1021.3 1019.8 0.0
14/10:30am 17.8 13.2 3.7 39 6.7 SE 17 24 9 13 1021.4 1019.9 0.0

Other Formats:

Comma delimited format used in spreadsheet applications
http://www.bom.gov.au/fwo/IDS60801/IDS60801.94684.axf

JavaScript Object Notation format (JSON) in row-major order
http://www.bom.gov.au/fwo/IDS60801/IDS60801.94684.json